MAPA DE AEROPUERTO

INFORMACIÓN METAR y TAF

METAR FOR LEZL
ADDS - METARS form results

(1126 UTC 27 November 2021)
Data provider http://aviationweather.gov/metar/data/
 
METAR text: LEZL 271100Z 21005KT 170V250 CAVOK 10/05 Q1013 NOSIG
Conditions at: LEZL (SEVILLA (CIV/MIL, ES) observed 1100 UTC 27 November 2021
Temperature: 10.0°C (50°F)
Dewpoint: 5.0°C (41°F) [RH = 71%]
Pressure (altimeter): 29.91 inches Hg (1013.0 mb)
Winds: from the SSW (210 degrees) at 6 MPH (5 knots; 2.6 m/s)
Visibility: 6 or more miles (10+ km)
Ceiling: ceiling and visibility are OK
Clouds: unknown
Weather: no significant weather observed at this time

METAR text: LEZL 271030Z 20004KT 160V250 CAVOK 09/05 Q1014 NOSIG
Conditions at: LEZL (SEVILLA (CIV/MIL, ES) observed 1030 UTC 27 November 2021
Temperature: 9.0°C (48°F)
Dewpoint: 5.0°C (41°F) [RH = 76%]
Pressure (altimeter): 29.94 inches Hg (1014.0 mb)
Winds: from the SSW (200 degrees) at 5 MPH (4 knots; 2.1 m/s)
Visibility: 6 or more miles (10+ km)
Ceiling: ceiling and visibility are OK
Clouds: unknown
Weather: no significant weather observed at this time

Forecast for: LEZL (SEVILLA (CIV/MIL, ES)
Text: TAF LEZL 270800Z 2709/2809 30009KT 9999 SCT030 TX16/2714Z TN03/2806Z
Forecast period: 0900 UTC 27 November 2021 to 0900 UTC 28 November 2021
Forecast type: FROM: standard forecast or significant change
Winds: from the WNW (300 degrees) at 10 MPH (9 knots; 4.6 m/s)
Visibility: 6 or more miles (10+ km)
Ceiling: at least 12,000 feet AGL
Clouds: scattered clouds at 3000 feet AGL
Weather: no significant weather forecast for this period